createdAt,value
2023-02-13T00:00:38.557Z,13.23
2023-02-13T00:05:36.931Z,14.47
2023-02-13T00:08:03.580Z,12.97
2023-02-13T00:10:30.121Z,13.10
2023-02-13T00:12:56.701Z,13.87
2023-02-13T00:15:23.293Z,12.47
2023-02-13T00:17:50.081Z,12.57
2023-02-13T00:20:16.668Z,13.93
2023-02-13T00:22:43.241Z,12.87
2023-02-13T00:25:09.944Z,12.77
2023-02-13T00:27:36.609Z,11.90
2023-02-13T00:30:04.550Z,12.50
2023-02-13T00:32:31.731Z,12.20
2023-02-13T00:34:58.434Z,11.83
2023-02-13T00:37:25.638Z,13.07
2023-02-13T00:39:52.492Z,12.00
2023-02-13T00:42:20.441Z,11.47
2023-02-13T00:44:47.003Z,12.10
2023-02-13T00:49:46.144Z,12.10
2023-02-13T00:52:13.174Z,11.97
2023-02-13T00:54:39.729Z,11.57
2023-02-13T00:57:06.300Z,11.40
2023-02-13T00:59:32.891Z,12.23
2023-02-13T01:01:59.433Z,11.67
2023-02-13T01:04:26.062Z,12.10
2023-02-13T01:06:52.605Z,11.87
2023-02-13T01:09:19.127Z,11.27
2023-02-13T01:11:45.673Z,11.47
2023-02-13T01:14:12.299Z,11.83
2023-02-13T01:16:38.989Z,12.47
2023-02-13T01:19:05.604Z,11.53
2023-02-13T01:21:32.184Z,11.13
2023-02-13T01:24:02.448Z,10.53
2023-02-13T01:26:29.034Z,11.07
2023-02-13T01:28:57.617Z,11.53
2023-02-13T01:31:24.499Z,10.73
2023-02-13T01:44:02.292Z,10.83
2023-02-13T02:04:52.808Z,9.33
2023-02-13T02:29:52.823Z,9.43
2023-02-13T02:50:22.695Z,9.67
2023-02-13T02:59:02.263Z,9.43
2023-02-13T03:07:22.356Z,8.90
2023-02-13T03:57:12.314Z,8.40
2023-02-13T04:33:47.154Z,7.20
2023-02-13T04:36:13.737Z,7.20
2023-02-13T04:38:40.367Z,7.03
2023-02-13T04:41:06.956Z,7.37
2023-02-13T04:43:33.554Z,6.80
2023-02-13T04:46:00.175Z,6.40
2023-02-13T04:48:26.910Z,6.13
2023-02-13T04:50:53.543Z,6.80
2023-02-13T04:53:20.152Z,7.17
2023-02-13T04:55:46.723Z,7.60
2023-02-13T04:58:13.341Z,7.63
2023-02-13T05:00:39.896Z,7.10
2023-02-13T05:03:08.800Z,6.27
2023-02-13T05:05:36.040Z,6.97
2023-02-13T05:08:02.699Z,6.90
2023-02-13T05:10:29.534Z,6.53
2023-02-13T05:12:56.382Z,6.47
2023-02-13T05:15:23.535Z,6.53
2023-02-13T05:17:50.356Z,6.73
2023-02-13T05:20:17.404Z,6.43
2023-02-13T05:23:03.973Z,6.47
2023-02-13T05:25:30.628Z,6.37
2023-02-13T05:27:57.274Z,6.60
2023-02-13T05:30:24.364Z,6.40
2023-02-13T05:35:23.771Z,5.70
2023-02-13T05:37:50.875Z,6.13
2023-02-13T05:40:17.763Z,6.53
2023-02-13T05:42:44.391Z,6.20
2023-02-13T05:45:11.024Z,6.83
2023-02-13T05:47:37.683Z,6.13
2023-02-13T05:50:04.672Z,6.43
2023-02-13T05:52:31.238Z,6.37
2023-02-13T05:54:57.807Z,5.23
2023-02-13T05:57:24.395Z,6.00
2023-02-13T05:59:50.954Z,6.27
2023-02-13T06:02:17.588Z,5.73
2023-02-13T06:04:44.191Z,5.17
2023-02-13T06:07:10.712Z,6.63
2023-02-13T06:09:37.406Z,6.00
2023-02-13T06:12:04.461Z,6.70
2023-02-13T06:14:31.080Z,5.63
2023-02-13T06:16:57.689Z,6.20
2023-02-13T06:19:24.271Z,6.17
2023-02-13T06:21:50.881Z,5.90
2023-02-13T06:24:17.486Z,5.30
2023-02-13T06:26:44.405Z,5.23
2023-02-13T06:29:12.599Z,5.57
2023-02-13T06:31:39.556Z,5.93
2023-02-13T06:34:06.133Z,6.17
2023-02-13T06:36:32.681Z,5.63
2023-02-13T06:38:59.216Z,5.83
2023-02-13T06:41:25.803Z,5.40
2023-02-13T06:43:52.356Z,5.77
2023-02-13T06:46:18.927Z,5.60
2023-02-13T06:48:45.443Z,5.47
2023-02-13T06:53:43.495Z,5.13
2023-02-13T06:56:11.126Z,5.20
2023-02-13T07:01:12.358Z,4.87
2023-02-13T07:13:53.051Z,5.27
2023-02-13T07:21:22.632Z,5.33
2023-02-13T07:29:05.673Z,5.57
2023-02-13T07:36:39.969Z,4.63
2023-02-13T07:39:06.608Z,4.60
2023-02-13T07:41:33.198Z,5.10
2023-02-13T07:43:59.735Z,4.80
2023-02-13T07:46:26.314Z,5.13
2023-02-13T07:48:53.344Z,4.90
2023-02-13T07:51:20.002Z,4.73
2023-02-13T07:53:46.766Z,4.77
2023-02-13T07:56:13.328Z,5.07
2023-02-13T08:01:15.659Z,5.17
2023-02-13T08:03:42.898Z,5.23
2023-02-13T08:06:09.604Z,5.20
2023-02-13T08:08:36.392Z,5.23
2023-02-13T08:11:26.034Z,4.57
2023-02-13T08:13:52.602Z,5.07
2023-02-13T08:16:19.369Z,4.00
2023-02-13T08:18:46.009Z,5.30
2023-02-13T08:21:14.847Z,5.00
2023-02-13T08:26:12.938Z,5.23
2023-02-13T08:28:39.614Z,4.30
2023-02-13T08:33:42.880Z,4.83
2023-02-13T08:41:12.834Z,4.60
2023-02-13T08:48:42.449Z,4.73
2023-02-13T09:03:52.834Z,4.53
2023-02-13T09:11:23.357Z,4.37
2023-02-13T09:13:53.374Z,4.43
2023-02-13T09:18:52.479Z,4.57
2023-02-13T10:06:32.334Z,4.00
2023-02-13T10:12:22.903Z,3.93
2023-02-13T11:58:14.042Z,3.67
2023-02-13T12:14:14.563Z,3.63
2023-02-13T12:16:47.279Z,3.80
2023-02-13T12:19:20.235Z,3.47
2023-02-13T12:22:14.943Z,3.60
2023-02-13T12:28:22.530Z,3.37
2023-02-13T12:33:56.630Z,3.50
2023-02-13T12:50:23.287Z,3.53
2023-02-13T12:56:13.690Z,3.27
2023-02-13T12:58:52.226Z,3.63
2023-02-13T13:01:35.182Z,3.43
2023-02-13T13:07:12.721Z,3.90
2023-02-13T13:10:14.254Z,3.57
2023-02-13T13:13:28.097Z,3.40
2023-02-13T13:16:05.805Z,3.40
2023-02-13T13:19:02.524Z,3.27
2023-02-13T13:21:38.006Z,3.73
2023-02-13T13:24:17.956Z,3.30
2023-02-13T13:26:50.469Z,3.30
2023-02-13T13:29:26.423Z,3.30
2023-02-13T13:31:58.501Z,3.20
2023-02-13T13:34:26.599Z,2.90
2023-02-13T13:37:07.042Z,3.03
2023-02-13T13:42:16.930Z,3.17
2023-02-13T13:44:49.437Z,3.00
2023-02-13T13:47:53.960Z,3.50
2023-02-13T13:50:29.784Z,2.93
2023-02-13T13:53:19.153Z,2.87
2023-02-13T13:56:02.325Z,2.83
2023-02-13T13:58:46.532Z,3.10
2023-02-13T14:01:29.536Z,3.37
2023-02-13T14:04:04.450Z,2.93
2023-02-13T14:06:45.827Z,3.27
2023-02-13T14:09:27.722Z,3.27
2023-02-13T14:11:56.465Z,3.60
2023-02-13T14:14:30.286Z,2.97
2023-02-13T14:16:59.020Z,3.13
2023-02-13T14:19:39.884Z,3.37
2023-02-13T14:22:24.663Z,3.13
2023-02-13T14:24:53.444Z,3.13
2023-02-13T14:27:26.217Z,3.13
2023-02-13T14:29:53.004Z,2.53
2023-02-13T14:32:34.225Z,2.90
2023-02-13T14:35:04.688Z,3.07
2023-02-13T14:37:36.592Z,2.80
2023-02-13T14:40:48.259Z,2.40
2023-02-13T14:43:22.999Z,3.20
2023-02-13T14:46:23.597Z,2.73
2023-02-13T14:49:06.533Z,2.70
2023-02-13T14:51:40.274Z,2.70
2023-02-13T14:54:26.231Z,2.90
2023-02-13T14:56:58.359Z,2.90
2023-02-13T14:59:32.532Z,2.80
2023-02-13T15:02:17.311Z,2.90
2023-02-13T15:04:48.729Z,2.60
2023-02-13T15:07:23.526Z,2.60
2023-02-13T15:09:55.619Z,2.50
2023-02-13T15:12:32.309Z,2.80
2023-02-13T15:17:40.060Z,2.73
2023-02-13T15:20:12.596Z,2.90
2023-02-13T15:22:42.332Z,2.40
2023-02-13T15:25:09.531Z,2.60
2023-02-13T15:30:21.859Z,2.60
2023-02-13T15:32:58.817Z,2.57
2023-02-13T15:35:27.154Z,2.50
2023-02-13T15:37:54.854Z,2.77
2023-02-13T15:40:25.688Z,2.73
2023-02-13T15:42:53.058Z,2.80
2023-02-13T15:47:56.200Z,2.60
2023-02-13T15:58:14.334Z,2.60
2023-02-13T16:00:42.928Z,2.50
2023-02-13T16:03:16.864Z,2.70
2023-02-13T16:05:46.460Z,2.30
2023-02-13T16:08:27.526Z,2.57
2023-02-13T16:19:44.508Z,2.50
2023-02-13T16:22:25.860Z,2.53
2023-02-13T16:24:55.822Z,2.30
2023-02-13T16:27:27.160Z,2.10
2023-02-13T16:30:06.573Z,2.27
2023-02-13T16:41:03.941Z,2.40
2023-02-13T16:43:36.820Z,2.60
2023-02-13T16:46:15.560Z,2.67
2023-02-13T16:57:15.257Z,2.40
2023-02-13T17:04:54.936Z,2.30
2023-02-13T17:10:23.690Z,2.20
2023-02-13T17:20:33.487Z,2.40
2023-02-13T17:23:05.920Z,2.50
2023-02-13T17:25:35.476Z,2.70
2023-02-13T17:33:25.861Z,17.03
2023-02-13T17:35:52.805Z,15.93
2023-02-13T17:40:46.648Z,13.37
2023-02-13T17:43:16.305Z,10.90
2023-02-13T17:45:43.639Z,12.73
2023-02-13T17:53:24.041Z,10.67
2023-02-13T17:58:22.512Z,11.30
2023-02-13T18:03:22.268Z,10.07
2023-02-13T18:10:52.832Z,8.93
2023-02-13T18:13:19.374Z,9.30
2023-02-13T18:43:43.633Z,8.20
2023-02-13T18:51:13.356Z,7.77
2023-02-13T18:56:12.254Z,7.83
2023-02-13T19:01:12.769Z,7.67
2023-02-13T19:06:14.388Z,6.43
2023-02-13T19:13:55.305Z,7.17
2023-02-13T19:16:22.700Z,6.67
2023-02-13T19:18:52.983Z,6.77
2023-02-13T19:21:25.008Z,8.07
2023-02-13T19:23:52.830Z,7.20
2023-02-13T19:26:22.860Z,7.17
2023-02-13T19:31:24.473Z,6.50
2023-02-13T19:36:25.212Z,6.43
2023-02-13T19:38:56.578Z,6.17
2023-02-13T19:41:23.862Z,7.70
2023-02-13T19:46:25.483Z,6.70
2023-02-13T19:48:52.600Z,6.53
2023-02-13T19:56:35.066Z,7.33
2023-02-13T20:01:33.456Z,6.67
2023-02-13T20:06:35.668Z,6.13
2023-02-13T20:09:06.057Z,6.90
2023-02-13T20:11:32.759Z,6.47
2023-02-13T20:14:05.224Z,6.30
2023-02-13T20:16:34.942Z,5.60
2023-02-13T20:19:06.855Z,6.43
2023-02-13T20:21:34.381Z,5.60
2023-02-13T20:24:03.017Z,5.70
2023-02-13T20:31:34.383Z,6.77
2023-02-13T20:36:33.479Z,7.57
2023-02-13T20:39:02.925Z,9.57
2023-02-13T20:41:33.357Z,9.97
2023-02-13T20:44:02.354Z,9.93
2023-02-13T20:46:33.672Z,11.83
2023-02-13T20:51:26.795Z,11.70
2023-02-13T20:53:54.492Z,12.63
2023-02-13T20:56:23.380Z,11.63
2023-02-13T21:01:25.865Z,10.33
2023-02-13T21:03:54.715Z,11.77
2023-02-13T21:06:23.536Z,11.23
2023-02-13T21:11:23.275Z,10.63
2023-02-13T21:16:25.262Z,7.90
2023-02-13T21:18:54.942Z,8.20
2023-02-13T21:21:22.730Z,7.93
2023-02-13T21:23:53.072Z,7.73
2023-02-13T21:28:52.437Z,7.30
2023-02-13T21:31:27.477Z,6.90
2023-02-13T21:33:56.552Z,7.20
2023-02-13T21:36:23.049Z,7.40
2023-02-13T21:43:53.007Z,6.13
2023-02-13T21:46:23.579Z,7.00
2023-02-13T21:48:58.620Z,5.80
2023-02-13T21:51:28.452Z,5.77
2023-02-13T21:53:55.363Z,5.40
2023-02-13T21:59:03.378Z,5.87
2023-02-13T22:01:35.824Z,4.97
2023-02-13T22:04:05.144Z,4.67
2023-02-13T22:06:34.868Z,5.43
2023-02-13T22:09:02.902Z,5.63
2023-02-13T22:11:30.503Z,5.00
2023-02-13T22:14:01.498Z,4.87
2023-02-13T22:16:32.587Z,4.90
2023-02-13T22:18:59.734Z,4.70
2023-02-13T22:21:28.855Z,5.00
2023-02-13T22:23:55.563Z,4.93
2023-02-13T22:26:25.045Z,4.90
2023-02-13T22:28:52.512Z,4.47
2023-02-13T22:31:19.912Z,4.57
2023-02-13T22:33:52.315Z,4.77
2023-02-13T22:36:25.650Z,5.13
2023-02-13T22:38:52.755Z,4.87
2023-02-13T22:41:22.631Z,4.40
2023-02-13T22:43:50.110Z,4.53
2023-02-13T22:46:23.107Z,4.33
2023-02-13T22:48:52.217Z,4.30
2023-02-13T22:51:24.951Z,4.27
2023-02-13T22:53:56.116Z,4.60
2023-02-13T22:56:23.727Z,4.40
2023-02-13T22:58:50.571Z,4.47
2023-02-13T23:01:23.297Z,4.57
2023-02-13T23:03:49.919Z,4.27
2023-02-13T23:06:17.656Z,4.47
2023-02-13T23:08:44.527Z,4.43
2023-02-13T23:11:32.839Z,4.27
2023-02-13T23:13:59.612Z,4.50
2023-02-13T23:16:26.737Z,4.40
2023-02-13T23:18:57.205Z,4.20
2023-02-13T23:21:25.310Z,4.57
2023-02-13T23:23:52.246Z,4.37
2023-02-13T23:26:19.547Z,3.93
2023-02-13T23:28:46.100Z,3.90
2023-02-13T23:31:12.765Z,4.20
2023-02-13T23:33:39.467Z,4.60
2023-02-13T23:36:06.594Z,5.40
2023-02-13T23:38:33.307Z,4.30
2023-02-13T23:41:09.130Z,4.40
2023-02-13T23:43:36.258Z,4.07
2023-02-13T23:46:04.480Z,4.43
2023-02-13T23:51:03.070Z,4.43
2023-02-13T23:53:29.692Z,4.30
2023-02-13T23:55:56.316Z,4.17
2023-02-13T23:58:23.183Z,4.30
